sensor_id;sensor_type;location;lat;lon;timestamp;pressure;altitude;pressure_sealevel;temperature;humidity
11712;BME280;5912;51.034;6.984;2022-09-13T00:00:39;100407.94;;;19.82;79.96
11712;BME280;5912;51.034;6.984;2022-09-13T00:03:06;100377.00;;;19.76;79.72
11712;BME280;5912;51.034;6.984;2022-09-13T00:05:31;100384.44;;;19.84;79.90
11712;BME280;5912;51.034;6.984;2022-09-13T00:07:57;100397.28;;;19.82;80.43
11712;BME280;5912;51.034;6.984;2022-09-13T00:10:23;100406.34;;;19.71;80.65
11712;BME280;5912;51.034;6.984;2022-09-13T00:12:48;100424.22;;;19.70;80.13
11712;BME280;5912;51.034;6.984;2022-09-13T00:15:14;100415.16;;;19.66;80.28
11712;BME280;5912;51.034;6.984;2022-09-13T00:17:39;100399.94;;;19.57;80.63
11712;BME280;5912;51.034;6.984;2022-09-13T00:20:05;100389.56;;;19.60;80.85
11712;BME280;5912;51.034;6.984;2022-09-13T00:22:31;100396.22;;;19.58;80.80
11712;BME280;5912;51.034;6.984;2022-09-13T00:24:56;100388.75;;;19.60;81.30
11712;BME280;5912;51.034;6.984;2022-09-13T00:27:21;100375.13;;;19.61;81.71
11712;BME280;5912;51.034;6.984;2022-09-13T00:29:46;100371.16;;;19.59;81.52
11712;BME280;5912;51.034;6.984;2022-09-13T00:32:12;100359.41;;;19.60;81.02
11712;BME280;5912;51.034;6.984;2022-09-13T00:34:37;100354.06;;;19.60;80.85
11712;BME280;5912;51.034;6.984;2022-09-13T00:37:03;100366.34;;;19.66;80.10
11712;BME280;5912;51.034;6.984;2022-09-13T00:39:28;100361.03;;;19.66;80.40
11712;BME280;5912;51.034;6.984;2022-09-13T00:41:54;100347.16;;;19.54;80.44
11712;BME280;5912;51.034;6.984;2022-09-13T00:44:51;100372.75;;;19.65;80.09
11712;BME280;5912;51.034;6.984;2022-09-13T00:48:07;100373.03;;;19.53;80.86
11712;BME280;5912;51.034;6.984;2022-09-13T00:50:21;100380.22;;;19.48;81.11
11712;BME280;5912;51.034;6.984;2022-09-13T00:58:18;100389.03;;;19.48;81.56
11712;BME280;5912;51.034;6.984;2022-09-13T01:00:44;100376.47;;;19.49;81.82
11712;BME280;5912;51.034;6.984;2022-09-13T01:03:11;100371.97;;;19.49;81.83
11712;BME280;5912;51.034;6.984;2022-09-13T01:05:45;100379.69;;;19.51;81.44
11712;BME280;5912;51.034;6.984;2022-09-13T01:08:12;100375.44;;;19.45;81.69
11712;BME280;5912;51.034;6.984;2022-09-13T01:10:46;100375.16;;;19.46;81.64
11712;BME280;5912;51.034;6.984;2022-09-13T01:13:24;100379.41;;;19.47;81.53
11712;BME280;5912;51.034;6.984;2022-09-13T01:15:51;100366.13;;;19.32;81.95
11712;BME280;5912;51.034;6.984;2022-09-13T01:18:17;100378.38;;;19.43;82.21
11712;BME280;5912;51.034;6.984;2022-09-13T01:21:14;100387.69;;;19.46;82.49
11712;BME280;5912;51.034;6.984;2022-09-13T01:24:08;100381.84;;;19.44;82.08
11712;BME280;5912;51.034;6.984;2022-09-13T01:27:13;100375.97;;;19.42;82.52
11712;BME280;5912;51.034;6.984;2022-09-13T01:35:31;100374.34;;;19.41;82.32
11712;BME280;5912;51.034;6.984;2022-09-13T01:43:26;100371.44;;;19.37;82.64
11712;BME280;5912;51.034;6.984;2022-09-13T01:46:12;100366.38;;;19.36;83.29
11712;BME280;5912;51.034;6.984;2022-09-13T01:48:54;100372.50;;;19.36;83.33
11712;BME280;5912;51.034;6.984;2022-09-13T01:51:31;100366.88;;;19.33;83.38
11712;BME280;5912;51.034;6.984;2022-09-13T01:54:05;100366.38;;;19.31;83.33
11712;BME280;5912;51.034;6.984;2022-09-13T01:56:47;100369.31;;;19.29;83.95
11712;BME280;5912;51.034;6.984;2022-09-13T02:02:18;100368.47;;;19.24;84.32
11712;BME280;5912;51.034;6.984;2022-09-13T02:04:54;100352.50;;;19.29;83.92
11712;BME280;5912;51.034;6.984;2022-09-13T02:07:28;100340.22;;;19.23;84.18
11712;BME280;5912;51.034;6.984;2022-09-13T02:09:58;100354.38;;;19.28;83.75
11712;BME280;5912;51.034;6.984;2022-09-13T02:12:27;100356.50;;;19.26;84.58
11712;BME280;5912;51.034;6.984;2022-09-13T02:15:00;100358.63;;;19.24;84.78
11712;BME280;5912;51.034;6.984;2022-09-13T02:17:31;100352.47;;;19.24;84.38
11712;BME280;5912;51.034;6.984;2022-09-13T02:20:00;100345.28;;;19.19;84.99
11712;BME280;5912;51.034;6.984;2022-09-13T02:22:30;100344.22;;;19.15;85.06
11712;BME280;5912;51.034;6.984;2022-09-13T02:25:04;100332.50;;;19.16;85.15
11712;BME280;5912;51.034;6.984;2022-09-13T02:27:32;100254.94;;;18.72;85.18
11712;BME280;5912;51.034;6.984;2022-09-13T02:30:03;100338.59;;;19.22;85.14
11712;BME280;5912;51.034;6.984;2022-09-13T02:32:32;100342.09;;;19.22;85.00
11712;BME280;5912;51.034;6.984;2022-09-13T02:35:03;100342.09;;;19.22;84.80
11712;BME280;5912;51.034;6.984;2022-09-13T02:37:32;100344.47;;;19.18;85.65
11712;BME280;5912;51.034;6.984;2022-09-13T02:40:03;100338.59;;;19.22;85.19
11712;BME280;5912;51.034;6.984;2022-09-13T02:42:51;100350.34;;;19.21;85.36
11712;BME280;5912;51.034;6.984;2022-09-13T02:45:20;100339.41;;;19.17;85.61
11712;BME280;5912;51.034;6.984;2022-09-13T02:47:59;100345.00;;;19.21;85.26
11712;BME280;5912;51.034;6.984;2022-09-13T02:53:38;100345.56;;;19.23;85.38
11712;BME280;5912;51.034;6.984;2022-09-13T02:56:25;100347.69;;;19.21;85.59
11712;BME280;5912;51.034;6.984;2022-09-13T02:59:01;100359.44;;;19.25;85.29
11712;BME280;5912;51.034;6.984;2022-09-13T03:01:30;100355.41;;;19.27;85.35
11712;BME280;5912;51.034;6.984;2022-09-13T03:03:55;100353.00;;;19.26;84.94
11712;BME280;5912;51.034;6.984;2022-09-13T03:06:26;100360.50;;;19.29;85.70
11712;BME280;5912;51.034;6.984;2022-09-13T03:08:53;100359.69;;;19.28;86.17
11712;BME280;5912;51.034;6.984;2022-09-13T03:11:40;100351.16;;;19.26;86.62
11712;BME280;5912;51.034;6.984;2022-09-13T03:14:25;100357.81;;;19.24;87.08
11712;BME280;5912;51.034;6.984;2022-09-13T03:22:35;100348.75;;;19.14;87.46
11712;BME280;5912;51.034;6.984;2022-09-13T03:25:18;100351.69;;;19.13;88.06
11712;BME280;5912;51.034;6.984;2022-09-13T03:30:25;100348.75;;;19.09;88.60
11712;BME280;5912;51.034;6.984;2022-09-13T03:33:10;100345.28;;;19.09;88.71
11712;BME280;5912;51.034;6.984;2022-09-13T03:35:50;100333.56;;;19.05;89.14
11712;BME280;5912;51.034;6.984;2022-09-13T03:38:17;100333.28;;;19.06;89.24
11712;BME280;5912;51.034;6.984;2022-09-13T03:40:49;100346.63;;;19.06;89.64
11712;BME280;5912;51.034;6.984;2022-09-13T03:43:22;100333.56;;;19.05;90.21
11712;BME280;5912;51.034;6.984;2022-09-13T03:45:54;100327.41;;;19.04;90.58
11712;BME280;5912;51.034;6.984;2022-09-13T03:48:21;100329.53;;;19.02;91.11
11712;BME280;5912;51.034;6.984;2022-09-13T03:50:48;100316.25;;;18.97;91.45
11712;BME280;5912;51.034;6.984;2022-09-13T03:53:18;100322.63;;;19.01;91.48
11712;BME280;5912;51.034;6.984;2022-09-13T03:55:44;100323.16;;;18.98;91.77
11712;BME280;5912;51.034;6.984;2022-09-13T03:58:14;100320.50;;;18.98;91.86
11712;BME280;5912;51.034;6.984;2022-09-13T04:00:40;100317.28;;;18.96;91.97
11712;BME280;5912;51.034;6.984;2022-09-13T04:03:06;100316.47;;;18.96;91.77
11712;BME280;5912;51.034;6.984;2022-09-13T04:05:32;100322.63;;;18.96;91.59
11712;BME280;5912;51.034;6.984;2022-09-13T04:07:58;100322.63;;;18.96;90.99
11712;BME280;5912;51.034;6.984;2022-09-13T04:10:24;100324.47;;;18.96;91.08
11712;BME280;5912;51.034;6.984;2022-09-13T04:12:49;100315.16;;;18.93;90.92
11712;BME280;5912;51.034;6.984;2022-09-13T04:15:15;100318.09;;;18.97;90.68
11712;BME280;5912;51.034;6.984;2022-09-13T04:17:41;100321.03;;;19.00;90.70
11712;BME280;5912;51.034;6.984;2022-09-13T04:20:06;100323.94;;;19.04;90.43
11712;BME280;5912;51.034;6.984;2022-09-13T04:22:32;100313.56;;;19.02;90.36
11712;BME280;5912;51.034;6.984;2022-09-13T04:24:57;100329.81;;;19.06;90.05
11712;BME280;5912;51.034;6.984;2022-09-13T04:27:23;100330.63;;;19.06;90.45
11712;BME280;5912;51.034;6.984;2022-09-13T04:29:49;100333.28;;;19.06;91.40
11712;BME280;5912;51.034;6.984;2022-09-13T04:32:15;100327.69;;;19.08;91.90
11712;BME280;5912;51.034;6.984;2022-09-13T04:34:40;100318.88;;;19.02;91.68
11712;BME280;5912;51.034;6.984;2022-09-13T04:37:05;100321.03;;;19.10;91.21
11712;BME280;5912;51.034;6.984;2022-09-13T04:39:30;100323.69;;;19.10;91.34
11712;BME280;5912;51.034;6.984;2022-09-13T04:41:56;100315.69;;;19.10;90.91
11712;BME280;5912;51.034;6.984;2022-09-13T04:44:22;100313.56;;;19.12;90.85
11712;BME280;5912;51.034;6.984;2022-09-13T04:46:48;100315.16;;;19.13;90.89
11712;BME280;5912;51.034;6.984;2022-09-13T04:49:16;100314.09;;;19.14;91.20
11712;BME280;5912;51.034;6.984;2022-09-13T04:51:41;100317.81;;;19.13;91.10
11712;BME280;5912;51.034;6.984;2022-09-13T04:54:08;100328.25;;;19.15;91.77
11712;BME280;5912;51.034;6.984;2022-09-13T04:56:34;100329.03;;;19.15;91.41
11712;BME280;5912;51.034;6.984;2022-09-13T04:59:00;100329.56;;;19.12;91.65
11712;BME280;5912;51.034;6.984;2022-09-13T05:01:26;100331.69;;;19.15;91.92
11712;BME280;5912;51.034;6.984;2022-09-13T05:04:00;100338.63;;;19.17;90.78
11712;BME280;5912;51.034;6.984;2022-09-13T05:06:25;100327.69;;;19.08;90.24
11712;BME280;5912;51.034;6.984;2022-09-13T05:08:53;100339.69;;;19.21;89.69
11712;BME280;5912;51.034;6.984;2022-09-13T05:11:24;100345.56;;;19.23;89.58
11712;BME280;5912;51.034;6.984;2022-09-13T05:13:51;100338.59;;;19.22;89.34
11712;BME280;5912;51.034;6.984;2022-09-13T05:16:18;100346.59;;;19.27;88.96
11712;BME280;5912;51.034;6.984;2022-09-13T05:18:44;100347.72;;;19.31;88.97
11712;BME280;5912;51.034;6.984;2022-09-13T05:21:09;100351.69;;;19.33;88.88
11712;BME280;5912;51.034;6.984;2022-09-13T05:23:35;100356.75;;;19.30;88.78
11712;BME280;5912;51.034;6.984;2022-09-13T05:26:03;100346.88;;;19.10;90.57
11712;BME280;5912;51.034;6.984;2022-09-13T05:28:31;100350.59;;;19.09;89.59
11712;BME280;5912;51.034;6.984;2022-09-13T05:31:01;100344.50;;;19.08;89.72
11712;BME280;5912;51.034;6.984;2022-09-13T05:33:29;100343.69;;;19.18;89.54
11712;BME280;5912;51.034;6.984;2022-09-13T05:35:55;100346.66;;;19.42;87.92
11712;BME280;5912;51.034;6.984;2022-09-13T05:38:21;100338.38;;;19.48;87.87
11712;BME280;5912;51.034;6.984;2022-09-13T05:40:47;100339.69;;;19.46;87.85
11712;BME280;5912;51.034;6.984;2022-09-13T05:43:13;100334.38;;;19.46;87.89
11712;BME280;5912;51.034;6.984;2022-09-13T05:45:39;100338.38;;;19.48;87.98
11712;BME280;5912;51.034;6.984;2022-09-13T05:48:04;100334.91;;;19.48;88.03
11712;BME280;5912;51.034;6.984;2022-09-13T05:50:30;100334.91;;;19.48;87.83
11712;BME280;5912;51.034;6.984;2022-09-13T05:52:55;100338.38;;;19.53;88.22
11712;BME280;5912;51.034;6.984;2022-09-13T05:55:21;100326.38;;;19.51;88.15
11712;BME280;5912;51.034;6.984;2022-09-13T05:57:47;100333.56;;;19.55;87.81
11712;BME280;5912;51.034;6.984;2022-09-13T06:00:13;100312.75;;;19.47;88.33
11712;BME280;5912;51.034;6.984;2022-09-13T06:02:39;100331.69;;;19.61;87.81
11712;BME280;5912;51.034;6.984;2022-09-13T06:05:06;100345.00;;;19.71;87.51
11712;BME280;5912;51.034;6.984;2022-09-13T06:07:31;100338.06;;;19.75;87.60
11712;BME280;5912;51.034;6.984;2022-09-13T06:09:56;100339.66;;;19.76;87.44
11712;BME280;5912;51.034;6.984;2022-09-13T06:12:22;100342.84;;;19.78;87.86
11712;BME280;5912;51.034;6.984;2022-09-13T06:14:47;100339.09;;;19.84;87.00
11712;BME280;5912;51.034;6.984;2022-09-13T06:17:13;100343.38;;;19.85;87.01
11712;BME280;5912;51.034;6.984;2022-09-13T06:19:39;100332.94;;;19.88;87.04
11712;BME280;5912;51.034;6.984;2022-09-13T06:22:04;100337.75;;;19.91;87.12
11712;BME280;5912;51.034;6.984;2022-09-13T06:24:29;100343.06;;;19.96;86.50
11712;BME280;5912;51.034;6.984;2022-09-13T06:26:55;100352.66;;;20.02;85.98
11712;BME280;5912;51.034;6.984;2022-09-13T06:29:20;100342.75;;;20.08;85.21
11712;BME280;5912;51.034;6.984;2022-09-13T06:31:45;100347.28;;;20.12;85.04
11712;BME280;5912;51.034;6.984;2022-09-13T06:34:11;100354.47;;;20.22;84.61
11712;BME280;5912;51.034;6.984;2022-09-13T06:36:39;100352.88;;;20.31;83.84
11712;BME280;5912;51.034;6.984;2022-09-13T06:39:04;100354.97;;;20.39;83.39
11712;BME280;5912;51.034;6.984;2022-09-13T06:41:31;100350.09;;;20.46;83.32
11712;BME280;5912;51.034;6.984;2022-09-13T06:43:57;100346.88;;;20.54;82.07
11712;BME280;5912;51.034;6.984;2022-09-13T06:46:25;100350.03;;;20.61;81.20
11712;BME280;5912;51.034;6.984;2022-09-13T06:48:51;100354.81;;;20.69;81.45
11712;BME280;5912;51.034;6.984;2022-09-13T06:51:19;100348.31;;;20.80;80.75
11712;BME280;5912;51.034;6.984;2022-09-13T06:53:46;100351.72;;;20.91;80.29
11712;BME280;5912;51.034;6.984;2022-09-13T06:56:23;100350.06;;;21.00;79.55
11712;BME280;5912;51.034;6.984;2022-09-13T06:58:51;100359.69;;;21.06;79.65
11712;BME280;5912;51.034;6.984;2022-09-13T07:01:24;100353.50;;;21.10;79.60
11712;BME280;5912;51.034;6.984;2022-09-13T07:03:52;100344.09;;;21.13;78.07
11712;BME280;5912;51.034;6.984;2022-09-13T07:06:30;100356.88;;;21.21;78.46
11712;BME280;5912;51.034;6.984;2022-09-13T07:08:57;100353.91;;;21.22;78.40
11712;BME280;5912;51.034;6.984;2022-09-13T07:11:24;100354.97;;;21.26;78.52
11712;BME280;5912;51.034;6.984;2022-09-13T07:13:53;100345.56;;;21.29;78.49
11712;BME280;5912;51.034;6.984;2022-09-13T07:16:20;100341.56;;;21.31;77.84
11712;BME280;5912;51.034;6.984;2022-09-13T07:18:54;100352.72;;;21.38;77.31
11712;BME280;5912;51.034;6.984;2022-09-13T07:21:20;100350.53;;;21.45;77.75
11712;BME280;5912;51.034;6.984;2022-09-13T07:23:47;100339.22;;;21.53;77.39
11712;BME280;5912;51.034;6.984;2022-09-13T07:26:12;100346.06;;;21.64;76.07
11712;BME280;5912;51.034;6.984;2022-09-13T07:28:40;100338.75;;;21.70;75.00
11712;BME280;5912;51.034;6.984;2022-09-13T07:31:10;100344.06;;;21.80;74.54
11712;BME280;5912;51.034;6.984;2022-09-13T07:33:38;100349.03;;;21.91;73.93
11712;BME280;5912;51.034;6.984;2022-09-13T07:36:04;100347.59;;;21.99;73.05
11712;BME280;5912;51.034;6.984;2022-09-13T07:38:37;100341.31;;;22.09;73.05
11712;BME280;5912;51.034;6.984;2022-09-13T07:41:04;100352.00;;;22.32;72.76
11712;BME280;5912;51.034;6.984;2022-09-13T07:43:32;100351.25;;;22.50;71.31
11712;BME280;5912;51.034;6.984;2022-09-13T07:46:08;100354.47;;;22.71;70.17
11712;BME280;5912;51.034;6.984;2022-09-13T07:48:36;100352.22;;;22.78;68.81
11712;BME280;5912;51.034;6.984;2022-09-13T07:51:08;100359.16;;;22.97;67.90
11712;BME280;5912;51.034;6.984;2022-09-13T07:53:35;100362.00;;;23.06;65.49
11712;BME280;5912;51.034;6.984;2022-09-13T07:56:05;100362.22;;;23.09;65.93
11712;BME280;5912;51.034;6.984;2022-09-13T07:58:32;100359.56;;;23.23;66.26
11712;BME280;5912;51.034;6.984;2022-09-13T08:03:33;100353.88;;;23.29;65.70
11712;BME280;5912;51.034;6.984;2022-09-13T08:05:59;100358.41;;;23.48;65.90
11712;BME280;5912;51.034;6.984;2022-09-13T08:08:24;100371.75;;;23.66;64.83
11712;BME280;5912;51.034;6.984;2022-09-13T08:10:49;100373.28;;;23.86;64.30
11712;BME280;5912;51.034;6.984;2022-09-13T08:13:16;100370.44;;;24.09;63.60
11712;BME280;5912;51.034;6.984;2022-09-13T08:15:42;100342.28;;;24.20;62.55
11712;BME280;5912;51.034;6.984;2022-09-13T08:18:07;100368.38;;;24.69;60.55
11712;BME280;5912;51.034;6.984;2022-09-13T08:20:37;100367.69;;;24.99;59.80
11712;BME280;5912;51.034;6.984;2022-09-13T08:23:04;100369.34;;;25.09;57.29
11712;BME280;5912;51.034;6.984;2022-09-13T08:25:33;100364.53;;;25.19;58.33
11712;BME280;5912;51.034;6.984;2022-09-13T08:28:20;100380.16;;;25.53;57.40
11712;BME280;5912;51.034;6.984;2022-09-13T08:30:49;100366.97;;;25.73;56.96
11712;BME280;5912;51.034;6.984;2022-09-13T08:33:15;100371.13;;;26.10;56.08
11712;BME280;5912;51.034;6.984;2022-09-13T08:35:48;100379.91;;;26.41;53.89
11712;BME280;5912;51.034;6.984;2022-09-13T08:38:14;100375.03;;;26.60;53.28
11712;BME280;5912;51.034;6.984;2022-09-13T08:40:40;100377.47;;;26.87;53.62
11712;BME280;5912;51.034;6.984;2022-09-13T08:43:23;100378.75;;;27.07;52.17
11712;BME280;5912;51.034;6.984;2022-09-13T08:46:00;100373.63;;;27.22;51.60
11712;BME280;5912;51.034;6.984;2022-09-13T08:48:35;100359.50;;;27.25;51.36
11712;BME280;5912;51.034;6.984;2022-09-13T08:51:04;100377.72;;;27.54;50.43
11712;BME280;5912;51.034;6.984;2022-09-13T08:53:44;100379.13;;;27.69;51.00
11712;BME280;5912;51.034;6.984;2022-09-13T09:03:57;100369.88;;;28.74;47.29
11712;BME280;5912;51.034;6.984;2022-09-13T09:06:26;100366.38;;;28.94;45.08
11712;BME280;5912;51.034;6.984;2022-09-13T09:08:59;100373.28;;;29.24;44.60
11712;BME280;5912;51.034;6.984;2022-09-13T09:11:35;100374.59;;;29.51;44.82
11712;BME280;5912;51.034;6.984;2022-09-13T09:14:19;100375.84;;;29.74;44.61
11712;BME280;5912;51.034;6.984;2022-09-13T09:16:58;100371.56;;;29.97;44.72
11712;BME280;5912;51.034;6.984;2022-09-13T09:19:37;100376.44;;;30.27;43.55
11712;BME280;5912;51.034;6.984;2022-09-13T09:22:11;100364.69;;;30.36;42.60
11712;BME280;5912;51.034;6.984;2022-09-13T09:24:39;100376.00;;;30.38;42.20
11712;BME280;5912;51.034;6.984;2022-09-13T09:27:14;100375.88;;;30.46;41.28
11712;BME280;5912;51.034;6.984;2022-09-13T09:29:40;100362.84;;;30.52;41.31
11712;BME280;5912;51.034;6.984;2022-09-13T09:32:43;100375.56;;;30.75;40.96
11712;BME280;5912;51.034;6.984;2022-09-13T09:35:20;100375.72;;;30.79;42.04
11712;BME280;5912;51.034;6.984;2022-09-13T09:38:13;100369.59;;;30.70;40.94
11712;BME280;5912;51.034;6.984;2022-09-13T09:40:43;100365.78;;;30.59;40.65
11712;BME280;5912;51.034;6.984;2022-09-13T09:43:23;100366.84;;;30.94;41.86
11712;BME280;5912;51.034;6.984;2022-09-13T09:45:51;100363.22;;;31.45;40.27
11712;BME280;5912;51.034;6.984;2022-09-13T09:48:21;100363.41;;;31.83;39.66
11712;BME280;5912;51.034;6.984;2022-09-13T09:50:50;100360.19;;;32.24;38.70
11712;BME280;5912;51.034;6.984;2022-09-13T09:53:32;100361.03;;;32.44;37.69
11712;BME280;5912;51.034;6.984;2022-09-13T09:56:05;100363.13;;;32.35;37.91
11712;BME280;5912;51.034;6.984;2022-09-13T09:58:44;100363.38;;;32.45;37.35
11712;BME280;5912;51.034;6.984;2022-09-13T10:01:39;100367.75;;;32.65;37.51
11712;BME280;5912;51.034;6.984;2022-09-13T10:06:38;100362.00;;;33.28;35.79
11712;BME280;5912;51.034;6.984;2022-09-13T10:09:05;100361.63;;;33.71;35.79
11712;BME280;5912;51.034;6.984;2022-09-13T10:11:40;100357.19;;;34.08;35.68
11712;BME280;5912;51.034;6.984;2022-09-13T10:14:26;100366.72;;;34.44;35.38
11712;BME280;5912;51.034;6.984;2022-09-13T10:17:16;100365.63;;;34.48;33.89
11712;BME280;5912;51.034;6.984;2022-09-13T10:22:36;100365.66;;;34.52;34.22
11712;BME280;5912;51.034;6.984;2022-09-13T10:25:25;100360.47;;;34.43;34.08
11712;BME280;5912;51.034;6.984;2022-09-13T10:27:56;100345.22;;;34.16;33.86
11712;BME280;5912;51.034;6.984;2022-09-13T10:33:31;100355.13;;;35.13;32.99
11712;BME280;5912;51.034;6.984;2022-09-13T10:36:00;100345.78;;;35.54;32.94
11712;BME280;5912;51.034;6.984;2022-09-13T10:38:40;100356.84;;;36.12;31.53
11712;BME280;5912;51.034;6.984;2022-09-13T10:41:08;100355.56;;;36.56;31.03
11712;BME280;5912;51.034;6.984;2022-09-13T10:43:55;100347.53;;;36.95;30.58
11712;BME280;5912;51.034;6.984;2022-09-13T10:46:22;100348.75;;;37.04;30.38
11712;BME280;5912;51.034;6.984;2022-09-13T10:48:48;100343.97;;;36.84;30.25
11712;BME280;5912;51.034;6.984;2022-09-13T10:54:17;100329.97;;;35.77;30.53
11712;BME280;5912;51.034;6.984;2022-09-13T10:56:43;100316.31;;;34.67;31.49
11712;BME280;5912;51.034;6.984;2022-09-13T11:07:42;100317.81;;;33.83;34.45
11712;BME280;5912;51.034;6.984;2022-09-13T11:29:06;100312.72;;;33.81;35.41
11712;BME280;5912;51.034;6.984;2022-09-13T11:39:56;100308.31;;;33.96;34.54
11712;BME280;5912;51.034;6.984;2022-09-13T11:42:42;100306.03;;;34.27;34.45
11712;BME280;5912;51.034;6.984;2022-09-13T11:45:23;100295.38;;;34.78;33.21
11712;BME280;5912;51.034;6.984;2022-09-13T11:48:20;100289.59;;;35.20;32.74
11712;BME280;5912;51.034;6.984;2022-09-13T11:56:57;100296.31;;;35.73;31.91
11712;BME280;5912;51.034;6.984;2022-09-13T11:59:36;100292.75;;;36.20;31.62
11712;BME280;5912;51.034;6.984;2022-09-13T12:02:28;100292.97;;;36.58;30.97
11712;BME280;5912;51.034;6.984;2022-09-13T12:05:11;100293.09;;;36.93;30.35
11712;BME280;5912;51.034;6.984;2022-09-13T12:07:43;100296.63;;;37.08;29.32
11712;BME280;5912;51.034;6.984;2022-09-13T12:10:44;100291.78;;;36.59;29.55
11712;BME280;5912;51.034;6.984;2022-09-13T12:13:19;100284.03;;;35.49;32.24
11712;BME280;5912;51.034;6.984;2022-09-13T12:15:46;100267.91;;;34.64;32.96
11712;BME280;5912;51.034;6.984;2022-09-13T12:18:19;100278.19;;;34.18;34.71
11712;BME280;5912;51.034;6.984;2022-09-13T12:20:51;100283.16;;;33.61;34.68
11712;BME280;5912;51.034;6.984;2022-09-13T12:23:23;100261.28;;;33.12;35.53
11712;BME280;5912;51.034;6.984;2022-09-13T12:26:19;100258.81;;;32.84;35.15
11712;BME280;5912;51.034;6.984;2022-09-13T12:29:14;100198.13;;;32.08;35.80
11712;BME280;5912;51.034;6.984;2022-09-13T12:31:42;100248.81;;;32.16;36.76
11712;BME280;5912;51.034;6.984;2022-09-13T12:34:14;100248.00;;;31.96;36.40
11712;BME280;5912;51.034;6.984;2022-09-13T12:56:40;100232.63;;;33.22;35.97
11712;BME280;5912;51.034;6.984;2022-09-13T13:01:46;100245.97;;;34.57;33.78
11712;BME280;5912;51.034;6.984;2022-09-13T13:04:19;100238.09;;;34.85;32.67
11712;BME280;5912;51.034;6.984;2022-09-13T13:06:55;100243.47;;;34.78;31.88
11712;BME280;5912;51.034;6.984;2022-09-13T13:11:54;100244.09;;;34.35;33.33
11712;BME280;5912;51.034;6.984;2022-09-13T13:14:45;100239.28;;;34.25;33.70
11712;BME280;5912;51.034;6.984;2022-09-13T13:19:59;100232.16;;;34.43;34.29
11712;BME280;5912;51.034;6.984;2022-09-13T13:25:34;100231.25;;;34.69;33.60
11712;BME280;5912;51.034;6.984;2022-09-13T13:29:11;100236.44;;;34.81;32.70
11712;BME280;5912;51.034;6.984;2022-09-13T13:41:55;100224.22;;;33.08;35.71
11712;BME280;5912;51.034;6.984;2022-09-13T13:46:48;100215.75;;;33.13;35.03
11712;BME280;5912;51.034;6.984;2022-09-13T13:57:22;100210.97;;;32.87;36.45
11712;BME280;5912;51.034;6.984;2022-09-13T13:59:54;100219.44;;;32.82;36.43
11712;BME280;5912;51.034;6.984;2022-09-13T14:13:40;100199.66;;;32.43;36.69
11712;BME280;5912;51.034;6.984;2022-09-13T14:16:18;100197.47;;;32.71;37.27
11712;BME280;5912;51.034;6.984;2022-09-13T14:21:37;100190.81;;;33.59;35.96
11712;BME280;5912;51.034;6.984;2022-09-13T14:24:18;100196.25;;;33.85;33.97
11712;BME280;5912;51.034;6.984;2022-09-13T14:26:46;100191.31;;;33.91;34.42
11712;BME280;5912;51.034;6.984;2022-09-13T14:29:19;100194.31;;;33.86;33.91
11712;BME280;5912;51.034;6.984;2022-09-13T14:31:47;100190.97;;;33.70;34.65
11712;BME280;5912;51.034;6.984;2022-09-13T14:34:32;100196.63;;;33.84;34.79
11712;BME280;5912;51.034;6.984;2022-09-13T14:37:15;100191.81;;;34.33;33.09
11712;BME280;5912;51.034;6.984;2022-09-13T14:39:58;100190.91;;;34.52;33.80
11712;BME280;5912;51.034;6.984;2022-09-13T14:42:23;100205.59;;;34.40;32.68
11712;BME280;5912;51.034;6.984;2022-09-13T14:44:49;100188.47;;;34.13;33.72
11712;BME280;5912;51.034;6.984;2022-09-13T14:49:51;100184.56;;;33.59;34.99
11712;BME280;5912;51.034;6.984;2022-09-13T14:52:35;100186.56;;;33.39;35.15
11712;BME280;5912;51.034;6.984;2022-09-13T14:55:10;100193.34;;;33.23;35.33
11712;BME280;5912;51.034;6.984;2022-09-13T14:57:45;100182.22;;;33.09;36.11
11712;BME280;5912;51.034;6.984;2022-09-13T15:02:38;100177.69;;;32.74;36.57
11712;BME280;5912;51.034;6.984;2022-09-13T15:05:10;100180.59;;;32.62;36.86
11712;BME280;5912;51.034;6.984;2022-09-13T15:07:38;100171.38;;;32.48;36.54
11712;BME280;5912;51.034;6.984;2022-09-13T15:10:19;100156.13;;;32.24;36.78
11712;BME280;5912;51.034;6.984;2022-09-13T15:20:55;100161.53;;;31.36;38.73
11712;BME280;5912;51.034;6.984;2022-09-13T15:23:32;100165.91;;;30.94;39.17
11712;BME280;5912;51.034;6.984;2022-09-13T15:26:08;100159.19;;;30.60;40.20
11712;BME280;5912;51.034;6.984;2022-09-13T15:31:05;100161.09;;;30.04;42.13
11712;BME280;5912;51.034;6.984;2022-09-13T15:33:33;100165.75;;;29.92;42.26
11712;BME280;5912;51.034;6.984;2022-09-13T15:38:59;100173.56;;;29.81;43.21
11712;BME280;5912;51.034;6.984;2022-09-13T15:41:32;100171.78;;;29.73;42.58
11712;BME280;5912;51.034;6.984;2022-09-13T15:43:59;100171.66;;;29.70;42.87
11712;BME280;5912;51.034;6.984;2022-09-13T15:46:25;100161.94;;;29.57;42.83
11712;BME280;5912;51.034;6.984;2022-09-13T15:48:56;100173.47;;;29.54;43.16
11712;BME280;5912;51.034;6.984;2022-09-13T15:51:22;100170.41;;;29.43;43.39
11712;BME280;5912;51.034;6.984;2022-09-13T15:53:48;100186.88;;;29.38;43.82
11712;BME280;5912;51.034;6.984;2022-09-13T15:56:21;100173.03;;;29.28;43.43
11712;BME280;5912;51.034;6.984;2022-09-13T15:58:50;100171.09;;;29.16;44.39
11712;BME280;5912;51.034;6.984;2022-09-13T16:01:16;100175.28;;;29.14;44.20
11712;BME280;5912;51.034;6.984;2022-09-13T16:03:42;100155.59;;;28.92;44.44
11712;BME280;5912;51.034;6.984;2022-09-13T16:06:08;100165.28;;;28.93;45.30
11712;BME280;5912;51.034;6.984;2022-09-13T16:08:35;100166.63;;;28.87;44.97
11712;BME280;5912;51.034;6.984;2022-09-13T16:11:00;100167.84;;;28.78;45.92
11712;BME280;5912;51.034;6.984;2022-09-13T16:13:26;100162.06;;;28.67;45.58
11712;BME280;5912;51.034;6.984;2022-09-13T16:15:51;100168.94;;;28.65;47.31
11712;BME280;5912;51.034;6.984;2022-09-13T16:18:16;100169.59;;;28.62;47.35
11712;BME280;5912;51.034;6.984;2022-09-13T16:20:43;100166.56;;;28.43;47.94